Time;durP1;ratioP1;P1;durP2;ratioP2;P2;SDS_P1;SDS_P2;PMS_P1;PMS_P2;Temp;Humidity;BMP_temperature;BMP_pressure;BME280_temperature;BME280_humidity;BME280_pressure;Samples;Min_cycle;Max_cycle;Signal;HPM_P1;HPM_P2
2022/08/25 00:01:09;;;;;;;;;;;;;;;22.71;86.39;101582.19;5013710;28;20318;-43
2022/08/25 00:03:34;;;;;;;;;;;;;;;22.64;87.97;101575.13;5014389;28;20031;-45
2022/08/25 00:06:00;;;;;;;;;;;;;;;22.53;87.86;101569.34;5012253;28;19913;-45
2022/08/25 00:08:25;;;;;;;;;;;;;;;22.48;90.11;101577.34;5013349;28;19919;-50
2022/08/25 00:10:50;;;;;;;;;;;;;;;22.41;88.09;101575.75;5014712;28;19909;-49
2022/08/25 00:13:15;;;;;;;;;;;;;;;22.33;89.93;101577.69;5015046;28;19909;-46
2022/08/25 00:15:40;;;;;;;;;;;;;;;22.30;90.59;101580.00;5013883;28;19908;-48
2022/08/25 00:18:06;;;;;;;;;;;;;;;22.25;88.79;101569.78;5014989;28;20148;-46
2022/08/25 00:20:31;;;;;;;;;;;;;;;22.22;89.30;101569.41;5014454;28;19908;-44
2022/08/25 00:22:56;;;;;;;;;;;;;;;22.16;89.10;101569.19;5014314;28;20278;-46
2022/08/25 00:25:22;;;;;;;;;;;;;;;22.10;89.54;101572.81;5013940;28;19931;-47
2022/08/25 00:27:48;;;;;;;;;;;;;;;22.05;92.58;101579.97;5014973;28;20392;-46
2022/08/25 00:30:15;;;;;;;;;;;;;;;21.96;93.06;101580.25;5014643;28;19909;-47
2022/08/25 00:32:40;;;;;;;;;;;;;;;21.92;91.25;101578.16;5013490;28;19935;-47
2022/08/25 00:35:06;;;;;;;;;;;;;;;21.91;91.62;101577.34;5018228;28;20068;-45
2022/08/25 00:37:31;;;;;;;;;;;;;;;21.89;91.26;101579.44;5017292;28;20346;-44
2022/08/25 00:39:57;;;;;;;;;;;;;;;21.85;90.79;101571.94;5018398;28;20339;-45
2022/08/25 00:42:23;;;;;;;;;;;;;;;21.78;94.27;101583.69;5017235;28;19919;-48
2022/08/25 00:44:48;;;;;;;;;;;;;;;21.75;91.29;101580.56;5016940;28;19920;-47
2022/08/25 00:47:13;;;;;;;;;;;;;;;21.75;92.02;101580.56;5017088;28;20808;-46
2022/08/25 00:49:40;;;;;;;;;;;;;;;21.74;92.37;101573.44;5017755;28;19913;-45
2022/08/25 00:52:14;;;;;;;;;;;;;;;21.73;92.19;101569.91;5016486;28;20104;-47
2022/08/25 00:54:40;;;;;;;;;;;;;;;21.70;92.05;101572.22;5017506;28;19913;-47
2022/08/25 00:57:06;;;;;;;;;;;;;;;21.66;93.31;101568.28;5017786;28;20367;-48
2022/08/25 00:59:32;;;;;;;;;;;;;;;21.61;92.35;101569.75;5017003;28;20119;-44
2022/08/25 01:01:58;;;;;;;;;;;;;;;21.60;92.79;101580.84;5017030;28;19971;-48
2022/08/25 01:04:24;;;;;;;;;;;;;;;21.61;94.43;101577.91;5017723;28;19960;-49
2022/08/25 01:06:49;;;;;;;;;;;;;;;21.60;92.68;101567.25;5015921;28;19913;-48
2022/08/25 01:09:15;;;;;;;;;;;;;;;21.58;92.69;101572.91;5017854;28;20364;-46
2022/08/25 01:11:43;;;;;;;;;;;;;;;21.57;93.12;101568.53;5017504;28;19931;-47
2022/08/25 01:14:09;;;;;;;;;;;;;;;21.56;93.23;101574.19;5017554;28;19913;-48
2022/08/25 01:16:36;;;;;;;;;;;;;;;21.53;94.21;101566.47;5016602;28;20652;-45
2022/08/25 01:19:02;;;;;;;;;;;;;;;21.50;93.51;101565.00;5017650;28;19919;-47
2022/08/25 01:21:28;;;;;;;;;;;;;;;21.49;93.22;101573.41;5014508;28;19967;-46
2022/08/25 01:23:57;;;;;;;;;;;;;;;21.48;93.17;101571.72;5017756;28;20549;-47
2022/08/25 01:26:23;;;;;;;;;;;;;;;21.46;93.61;101566.47;5017092;28;20076;-48
2022/08/25 01:31:35;;;;;;;;;;;;;;;21.35;96.32;101569.84;5015909;28;19919;-48
2022/08/25 01:34:00;;;;;;;;;;;;;;;21.30;95.66;101577.81;5017554;28;20249;-46
2022/08/25 01:36:26;;;;;;;;;;;;;;;21.27;97.56;101579.09;5015221;28;20234;-47
2022/08/25 01:38:52;;;;;;;;;;;;;;;21.21;94.67;101572.59;5017745;28;19924;-48
2022/08/25 01:41:40;;;;;;;;;;;;;;;21.22;96.02;101570.75;5016572;28;20411;-48
2022/08/25 01:44:06;;;;;;;;;;;;;;;21.20;97.05;101565.53;4995795;28;19917;-47
2022/08/25 01:46:31;;;;;;;;;;;;;;;21.22;95.50;101574.28;5016500;28;19943;-47
2022/08/25 01:48:56;;;;;;;;;;;;;;;21.23;96.20;101567.81;5016824;28;19913;-46
2022/08/25 01:51:23;;;;;;;;;;;;;;;21.25;95.80;101570.31;5015535;28;20512;-48
2022/08/25 01:53:49;;;;;;;;;;;;;;;21.29;95.98;101574.25;5016956;28;19959;-48
2022/08/25 01:56:15;;;;;;;;;;;;;;;21.31;95.64;101569.44;5016430;28;20004;-48
2022/08/25 01:58:42;;;;;;;;;;;;;;;21.32;96.33;101573.00;5017318;28;20332;-45
2022/08/25 02:01:10;;;;;;;;;;;;;;;21.30;95.64;101569.66;5014040;28;20379;-45
2022/08/25 02:03:39;;;;;;;;;;;;;;;21.29;97.02;101566.13;5016358;28;19928;-46
2022/08/25 02:06:04;;;;;;;;;;;;;;;21.28;96.79;101569.88;5015419;28;20279;-46
2022/08/25 02:08:30;;;;;;;;;;;;;;;21.27;96.56;101560.06;5016923;28;19916;-45
2022/08/25 02:10:55;;;;;;;;;;;;;;;21.26;95.82;101563.00;5016081;28;20131;-48
2022/08/25 02:13:20;;;;;;;;;;;;;;;21.27;96.15;101564.69;5016595;28;20004;-49
2022/08/25 02:15:53;;;;;;;;;;;;;;;21.27;94.94;101567.41;5015177;28;19986;-46
2022/08/25 02:18:19;;;;;;;;;;;;;;;21.29;94.74;101568.84;5015261;28;20415;-48
2022/08/25 02:20:44;;;;;;;;;;;;;;;21.27;94.76;101562.78;5015521;28;19964;-49
2022/08/25 02:23:09;;;;;;;;;;;;;;;21.25;94.10;101564.88;5015978;28;19995;-46
2022/08/25 02:25:36;;;;;;;;;;;;;;;21.24;93.35;101564.03;5016193;28;20007;-47
2022/08/25 02:28:01;;;;;;;;;;;;;;;21.23;93.30;101570.53;5016879;28;20356;-47
2022/08/25 02:30:27;;;;;;;;;;;;;;;21.24;92.45;101565.94;5015074;28;19909;-47
2022/08/25 02:32:52;;;;;;;;;;;;;;;21.23;92.54;101561.53;5016552;28;19959;-47
2022/08/25 02:35:17;;;;;;;;;;;;;;;21.24;92.54;101555.88;5015986;28;20291;-46
2022/08/25 02:37:42;;;;;;;;;;;;;;;21.23;92.34;101561.53;5029532;28;20414;-47
2022/08/25 02:40:08;;;;;;;;;;;;;;;21.20;92.26;101557.38;5015874;28;19920;-49
2022/08/25 02:42:34;;;;;;;;;;;;;;;21.20;92.04;101553.84;5015635;28;19921;-47
2022/08/25 02:44:59;;;;;;;;;;;;;;;21.18;92.30;101556.75;5016229;28;20319;-48
2022/08/25 02:47:24;;;;;;;;;;;;;;;21.17;91.17;101555.09;5014422;28;20601;-46
2022/08/25 02:49:50;;;;;;;;;;;;;;;21.17;91.73;101555.09;5015974;28;19920;-48
2022/08/25 02:52:15;;;;;;;;;;;;;;;21.16;91.63;101552.56;5014340;28;19913;-45
2022/08/25 02:54:40;;;;;;;;;;;;;;;21.16;91.67;101550.69;5015763;28;20371;-45
2022/08/25 02:57:06;;;;;;;;;;;;;;;21.14;91.34;101546.53;5013931;28;20419;-45
2022/08/25 02:59:31;;;;;;;;;;;;;;;21.12;90.39;101546.75;5015547;28;19909;-45
2022/08/25 03:01:56;;;;;;;;;;;;;;;21.11;90.54;101539.63;5015554;28;20352;-46
2022/08/25 03:04:22;;;;;;;;;;;;;;;21.10;90.87;101543.41;5013431;28;20015;-46
2022/08/25 03:06:47;;;;;;;;;;;;;;;21.11;90.58;101538.81;5014597;28;19924;-46
2022/08/25 03:09:13;;;;;;;;;;;;;;;21.07;91.15;101543.00;5014965;28;19919;-45
2022/08/25 03:11:39;;;;;;;;;;;;;;;21.02;91.01;101536.31;5015239;28;20234;-45
2022/08/25 03:14:05;;;;;;;;;;;;;;;20.97;90.79;101538.00;5015371;28;19909;-45
2022/08/25 03:16:30;;;;;;;;;;;;;;;20.93;92.07;101532.19;5013358;28;20311;-46
2022/08/25 03:18:56;;;;;;;;;;;;;;;20.89;92.87;101530.09;5016077;28;20384;-47
2022/08/25 03:21:21;;;;;;;;;;;;;;;20.83;91.54;101535.34;5013699;28;20351;-45
2022/08/25 03:23:47;;;;;;;;;;;;;;;20.80;91.41;101533.03;5015555;28;20271;-48
2022/08/25 03:28:56;;;;;;;;;;;;;;;20.77;92.42;101524.47;5014229;28;20124;-45
2022/08/25 03:31:22;;;;;;;;;;;;;;;20.74;91.03;101517.63;5013677;28;20399;-48
2022/08/25 03:33:47;;;;;;;;;;;;;;;20.71;93.50;101515.31;5015499;28;19917;-46
2022/08/25 03:36:13;;;;;;;;;;;;;;;20.70;92.89;101520.97;5013810;28;19948;-45
2022/08/25 03:38:39;;;;;;;;;;;;;;;20.65;92.15;101521.59;5015962;28;19932;-45
2022/08/25 03:41:11;;;;;;;;;;;;;;;20.63;93.75;101515.53;5014666;28;20068;-45
2022/08/25 03:43:36;;;;;;;;;;;;;;;20.59;92.73;101515.09;5014966;28;19909;-45
2022/08/25 03:46:01;;;;;;;;;;;;;;;20.58;92.36;101507.16;5013357;28;20365;-45
2022/08/25 03:48:27;;;;;;;;;;;;;;;20.59;92.43;101514.28;5014744;28;19913;-49
2022/08/25 03:50:53;;;;;;;;;;;;;;;20.58;93.61;101518.03;5013745;28;19999;-49
2022/08/25 03:53:19;;;;;;;;;;;;;;;20.54;93.34;101514.06;5015367;28;20275;-48
2022/08/25 03:55:44;;;;;;;;;;;;;;;20.50;92.53;101509.06;5015196;28;20133;-47
2022/08/25 03:58:11;;;;;;;;;;;;;;;20.51;92.72;101504.47;5015474;28;20011;-47
2022/08/25 04:00:36;;;;;;;;;;;;;;;20.50;92.20;101500.94;5014362;28;20364;-45
2022/08/25 04:03:01;;;;;;;;;;;;;;;20.50;92.45;101509.06;5014976;28;19930;-45
2022/08/25 04:05:26;;;;;;;;;;;;;;;20.48;92.35;101507.59;5013029;28;19909;-47
2022/08/25 04:07:51;;;;;;;;;;;;;;;20.45;91.93;101500.72;5016628;28;19924;-46
2022/08/25 04:10:17;;;;;;;;;;;;;;;20.44;92.08;101498.22;5019338;28;19909;-47
2022/08/25 04:12:42;;;;;;;;;;;;;;;20.44;91.63;101490.09;5018553;28;19909;-45
2022/08/25 04:15:08;;;;;;;;;;;;;;;20.42;92.09;101484.88;5049761;28;19936;-45
2022/08/25 04:17:36;;;;;;;;;;;;;;;20.41;91.51;101491.31;5018191;28;19996;-45
2022/08/25 04:20:03;;;;;;;;;;;;;;;20.39;91.80;101493.41;5018461;28;20550;-49
2022/08/25 04:22:29;;;;;;;;;;;;;;;20.35;90.92;101492.19;5016821;28;19909;-45
2022/08/25 04:24:55;;;;;;;;;;;;;;;20.31;90.53;101497.19;5018058;28;19913;-47
2022/08/25 04:27:20;;;;;;;;;;;;;;;20.30;91.07;101492.81;5017901;28;19920;-51
2022/08/25 04:29:45;;;;;;;;;;;;;;;20.30;90.02;101498.22;5018389;28;19917;-48
2022/08/25 04:32:10;;;;;;;;;;;;;;;20.31;90.10;101502.63;5017281;28;19966;-46
2022/08/25 04:34:35;;;;;;;;;;;;;;;20.30;91.48;101495.50;5018554;28;19916;-47
2022/08/25 04:37:01;;;;;;;;;;;;;;;20.30;90.47;101487.38;5017075;28;19909;-49
2022/08/25 04:39:27;;;;;;;;;;;;;;;20.29;90.98;101482.16;5017976;28;20211;-45
2022/08/25 04:41:52;;;;;;;;;;;;;;;20.28;90.51;101488.63;5017795;28;20015;-47
2022/08/25 04:44:18;;;;;;;;;;;;;;;20.27;90.88;101490.50;5017325;28;20346;-47
2022/08/25 04:46:43;;;;;;;;;;;;;;;20.24;90.29;101479.25;5016668;28;19919;-47
2022/08/25 04:49:09;;;;;;;;;;;;;;;20.21;90.15;101476.94;5017794;28;20447;-47
2022/08/25 04:51:36;;;;;;;;;;;;;;;20.19;90.30;101485.28;5016801;28;20376;-46
2022/08/25 04:54:04;;;;;;;;;;;;;;;20.18;90.78;101480.06;5018495;28;19982;-46
2022/08/25 04:56:31;;;;;;;;;;;;;;;20.16;89.99;101480.28;5018344;28;19913;-48
2022/08/25 04:59:00;;;;;;;;;;;;;;;20.15;89.85;101473.19;5017841;28;19916;-48
2022/08/25 05:01:26;;;;;;;;;;;;;;;20.15;89.63;101475.91;5015813;28;19909;-49
2022/08/25 05:03:54;;;;;;;;;;;;;;;20.15;89.84;101475.09;5017806;28;19928;-51
2022/08/25 05:06:19;;;;;;;;;;;;;;;20.18;89.73;101474.66;5015916;28;20209;-50
2022/08/25 05:08:44;;;;;;;;;;;;;;;20.18;89.25;101478.22;5018105;28;20017;-47
2022/08/25 05:11:13;;;;;;;;;;;;;;;20.16;89.40;101483.00;5016891;28;19967;-48
2022/08/25 05:13:38;;;;;;;;;;;;;;;20.20;89.23;101486.16;5017611;28;19913;-50
2022/08/25 05:16:04;;;;;;;;;;;;;;;20.21;89.07;101493.22;5016360;28;20319;-45
2022/08/25 05:18:30;;;;;;;;;;;;;;;20.26;88.75;101496.13;5016427;28;19920;-50
2022/08/25 05:20:56;;;;;;;;;;;;;;;20.28;87.84;101499.47;5015915;28;19909;-47
2022/08/25 05:23:22;;;;;;;;;;;;;;;20.29;87.98;101499.25;5016573;28;19912;-46
2022/08/25 05:25:48;;;;;;;;;;;;;;;20.38;88.16;101508.00;5020345;28;20478;-47
2022/08/25 05:28:13;;;;;;;;;;;;;;;20.42;87.69;101513.88;5018598;28;19919;-48
2022/08/25 05:30:40;;;;;;;;;;;;;;;20.44;87.28;101511.78;5016323;28;19915;-48
2022/08/25 05:33:05;;;;;;;;;;;;;;;20.48;87.39;101510.31;5015353;28;19909;-43
2022/08/25 05:35:31;;;;;;;;;;;;;;;20.52;86.88;101513.44;5016562;28;19919;-45
2022/08/25 05:37:56;;;;;;;;;;;;;;;20.55;85.88;101513.00;5016826;28;19917;-45
2022/08/25 05:40:21;;;;;;;;;;;;;;;20.61;86.96;101512.19;5016243;28;19916;-44
2022/08/25 05:42:47;;;;;;;;;;;;;;;20.65;86.54;101521.59;5017133;28;19909;-45
2022/08/25 05:45:12;;;;;;;;;;;;;;;20.73;85.92;101520.53;5016101;28;19912;-48
2022/08/25 05:47:38;;;;;;;;;;;;;;;20.78;86.46;101523.44;5015769;28;19987;-46
2022/08/25 05:50:03;;;;;;;;;;;;;;;20.81;85.02;101518.44;5016389;28;20679;-45
2022/08/25 05:52:28;;;;;;;;;;;;;;;20.84;85.24;101526.16;5016844;28;19955;-46
2022/08/25 05:54:53;;;;;;;;;;;;;;;20.86;84.98;101520.50;5033308;28;19936;-47
2022/08/25 05:57:19;;;;;;;;;;;;;;;20.87;84.69;101527.59;5016033;28;19919;-49
2022/08/25 05:59:44;;;;;;;;;;;;;;;20.87;83.46;101522.16;5016673;28;19913;-47
2022/08/25 06:04:53;;;;;;;;;;;;;;;20.96;85.23;101526.34;5020384;28;19931;-49
2022/08/25 06:07:18;;;;;;;;;;;;;;;20.98;85.20;101528.84;5015462;28;20023;-46
2022/08/25 06:09:45;;;;;;;;;;;;;;;21.01;84.72;101529.25;5016932;28;20117;-47
2022/08/25 06:12:10;;;;;;;;;;;;;;;21.05;83.91;101535.91;5047205;28;19955;-46
2022/08/25 06:14:35;;;;;;;;;;;;;;;21.08;83.85;101539.22;5016076;28;20340;-47
2022/08/25 06:17:01;;;;;;;;;;;;;;;21.11;84.14;101539.63;5015018;28;19967;-48
2022/08/25 06:19:26;;;;;;;;;;;;;;;21.15;83.57;101534.63;5016062;28;19920;-49
2022/08/25 06:21:53;;;;;;;;;;;;;;;21.19;83.46;101527.69;5015283;28;19917;-46
2022/08/25 06:24:18;;;;;;;;;;;;;;;21.19;83.29;101516.84;5015948;28;20376;-48
2022/08/25 06:26:43;;;;;;;;;;;;;;;21.27;82.68;101518.50;5016209;28;19909;-49
2022/08/25 06:29:08;;;;;;;;;;;;;;;21.32;83.10;101524.94;5015672;28;20011;-46
2022/08/25 06:31:33;;;;;;;;;;;;;;;21.37;82.46;101525.13;5014101;28;19913;-48
2022/08/25 06:33:59;;;;;;;;;;;;;;;21.43;81.64;101523.41;5016112;28;20035;-49
2022/08/25 06:36:24;;;;;;;;;;;;;;;21.47;81.51;101527.41;5013956;28;20313;-48
2022/08/25 06:38:50;;;;;;;;;;;;;;;21.51;80.46;101531.34;5015121;28;19993;-49
2022/08/25 06:41:16;;;;;;;;;;;;;;;21.58;80.31;101531.31;5016004;28;20216;-46
2022/08/25 06:43:41;;;;;;;;;;;;;;;21.67;80.04;101538.16;5016110;28;19909;-45
2022/08/25 06:46:11;;;;;;;;;;;;;;;21.75;79.22;101527.00;5014051;28;19916;-45
2022/08/25 06:48:36;;;;;;;;;;;;;;;21.85;80.02;101531.97;5016682;28;19913;-48
2022/08/25 06:51:06;;;;;;;;;;;;;;;21.96;79.50;101531.28;5013100;28;19999;-49
2022/08/25 06:53:31;;;;;;;;;;;;;;;22.09;77.98;101532.22;5024998;28;19909;-46
2022/08/25 06:55:57;;;;;;;;;;;;;;;22.21;79.16;101525.00;5033655;28;19920;-47
2022/08/25 06:58:22;;;;;;;;;;;;;;;22.34;78.28;101529.56;5015743;28;20011;-44
2022/08/25 07:00:48;;;;;;;;;;;;;;;22.46;78.45;101521.50;5014766;28;20618;-45
2022/08/25 07:03:13;;;;;;;;;;;;;;;22.59;78.05;101529.53;5015750;28;19924;-44
2022/08/25 07:05:38;;;;;;;;;;;;;;;22.76;77.20;101524.34;5014309;28;19909;-46
2022/08/25 07:08:03;;;;;;;;;;;;;;;22.92;76.71;101525.63;5015770;28;19919;-45
2022/08/25 07:10:28;;;;;;;;;;;;;;;23.06;74.90;101524.41;5015572;28;19909;-46
2022/08/25 07:12:54;;;;;;;;;;;;;;;23.17;73.27;101520.13;5014818;28;20339;-46
2022/08/25 07:15:19;;;;;;;;;;;;;;;23.32;74.19;101514.28;5013725;28;19913;-45
2022/08/25 07:17:44;;;;;;;;;;;;;;;23.51;71.06;101516.97;5015167;28;20037;-48
2022/08/25 07:20:09;;;;;;;;;;;;;;;23.66;71.82;101509.19;5014610;28;20032;-48
2022/08/25 07:22:35;;;;;;;;;;;;;;;23.83;71.60;101512.94;5015099;28;20054;-48
2022/08/25 07:25:00;;;;;;;;;;;;;;;24.02;71.32;101516.41;5015977;28;20007;-48
2022/08/25 07:27:25;;;;;;;;;;;;;;;24.20;71.19;101514.63;5027125;28;19908;-47
2022/08/25 07:29:52;;;;;;;;;;;;;;;24.33;69.61;101516.31;5035517;28;19923;-48
2022/08/25 07:32:18;;;;;;;;;;;;;;;24.46;71.37;101516.09;5034231;28;19909;-49
2022/08/25 07:37:27;;;;;;;;;;;;;;;24.69;67.57;101512.53;5034833;28;20299;-44
2022/08/25 07:39:52;;;;;;;;;;;;;;;24.84;69.00;101516.69;5035079;28;19916;-44
2022/08/25 07:42:17;;;;;;;;;;;;;;;24.95;68.20;101513.91;5029505;28;19913;-46
2022/08/25 07:44:42;;;;;;;;;;;;;;;25.03;65.21;101509.16;5018953;28;20596;-47
2022/08/25 07:47:08;;;;;;;;;;;;;;;25.07;66.20;101518.53;5017515;28;20067;-46
2022/08/25 07:49:33;;;;;;;;;;;;;;;25.15;64.96;101518.13;5018865;28;19913;-49
2022/08/25 07:51:58;;;;;;;;;;;;;;;25.23;65.79;101512.28;5017992;28;20082;-46
2022/08/25 07:54:26;;;;;;;;;;;;;;;25.36;66.97;101505.75;5019382;28;20352;-46
2022/08/25 07:56:51;;;;;;;;;;;;;;;25.50;66.25;101509.84;5018560;28;20034;-46
2022/08/25 07:59:16;;;;;;;;;;;;;;;25.60;65.28;101511.94;5019591;28;19951;-47
2022/08/25 08:01:41;;;;;;;;;;;;;;;25.70;65.69;101508.56;5017968;28;19958;-48
2022/08/25 08:04:06;;;;;;;;;;;;;;;25.82;66.25;101508.50;5018901;28;19921;-47
2022/08/25 08:06:32;;;;;;;;;;;;;;;25.93;65.77;101510.31;5017591;28;20291;-49
2022/08/25 08:08:58;;;;;;;;;;;;;;;26.01;63.54;101514.59;5018446;28;20472;-48
2022/08/25 08:11:28;;;;;;;;;;;;;;;26.12;65.38;101504.63;5017504;28;19913;-46
2022/08/25 08:13:54;;;;;;;;;;;;;;;26.24;64.44;101505.38;5019237;28;20419;-49
2022/08/25 08:16:21;;;;;;;;;;;;;;;26.41;63.15;101497.16;5017249;28;19940;-46
2022/08/25 08:18:46;;;;;;;;;;;;;;;26.57;64.24;101501.75;5019485;28;19959;-47
2022/08/25 08:21:13;;;;;;;;;;;;;;;26.69;62.31;101495.38;5016739;28;19912;-50
2022/08/25 08:23:38;;;;;;;;;;;;;;;26.82;63.89;101495.00;5018293;28;19916;-48
2022/08/25 08:26:04;;;;;;;;;;;;;;;26.92;61.82;101497.03;5017148;28;19913;-44
2022/08/25 08:28:30;;;;;;;;;;;;;;;27.07;63.91;101499.13;5038740;28;19916;-48
2022/08/25 08:30:55;;;;;;;;;;;;;;;27.18;62.77;101504.47;5037158;28;20276;-45
2022/08/25 08:33:21;;;;;;;;;;;;;;;27.29;62.32;101499.97;5037976;28;19932;-46
2022/08/25 08:35:46;;;;;;;;;;;;;;;27.39;60.89;101507.47;5037523;28;19909;-46
2022/08/25 08:38:12;;;;;;;;;;;;;;;27.54;62.65;101499.38;5038453;28;19967;-46
2022/08/25 08:42:15;;;;;;;;;;;;;;;27.72;62.38;101492.72;5037852;28;20506;-47
2022/08/25 08:43:30;;;;;;;;;;;;;;;27.89;60.87;101489.00;5038203;28;19916;-47
2022/08/25 08:45:56;;;;;;;;;;;;;;;28.03;62.08;101489.44;5036880;28;20367;-46
2022/08/25 08:48:37;;;;;;;;;;;;;;;28.14;57.19;101499.41;5038011;28;19913;-49
2022/08/25 08:51:10;;;;;;;;;;;;;;;28.22;57.38;101493.41;5034767;28;20379;-49
2022/08/25 08:53:41;;;;;;;;;;;;;;;28.33;59.39;101494.31;5037204;28;19973;-47
2022/08/25 08:56:11;;;;;;;;;;;;;;;28.45;60.33;101488.63;5037523;28;19955;-51
2022/08/25 08:58:53;;;;;;;;;;;;;;;28.61;54.78;101484.06;5038323;28;19916;-47
2022/08/25 09:01:24;;;;;;;;;;;;;;;28.73;53.98;101492.09;5067054;28;19919;-47
2022/08/25 09:03:53;;;;;;;;;;;;;;;28.83;52.16;101490.19;5037532;28;19920;-51
2022/08/25 09:06:34;;;;;;;;;;;;;;;28.93;53.36;101494.09;5036136;28;19959;-50
2022/08/25 09:09:02;;;;;;;;;;;;;;;29.08;53.99;101487.84;5038088;28;19912;-49
2022/08/25 09:11:27;;;;;;;;;;;;;;;29.20;56.13;101489.25;5036448;28;20012;-50
2022/08/25 09:14:00;;;;;;;;;;;;;;;29.43;55.17;101497.28;5037325;28;19985;-47
2022/08/25 09:19:34;;;;;;;;;;;;;;;29.76;57.84;101498.72;5018049;28;19927;-48
2022/08/25 09:22:08;;;;;;;;;;;;;;;29.93;53.87;101495.72;5049314;28;19935;-47
2022/08/25 09:24:33;;;;;;;;;;;;;;;30.05;51.32;101493.50;5018398;28;20279;-47
2022/08/25 09:27:11;;;;;;;;;;;;;;;30.19;55.21;101490.19;5017239;28;19909;-47
2022/08/25 09:29:48;;;;;;;;;;;;;;;30.38;50.42;101487.69;5017343;28;20506;-45
2022/08/25 09:32:14;;;;;;;;;;;;;;;30.49;54.80;101492.91;5016980;28;19913;-45
2022/08/25 09:34:40;;;;;;;;;;;;;;;30.61;50.88;101495.34;5016608;28;19928;-45
2022/08/25 09:37:05;;;;;;;;;;;;;;;30.66;50.29;101486.22;5016737;28;19916;-47
2022/08/25 09:39:30;;;;;;;;;;;;;;;30.72;52.20;101487.03;5017671;28;19913;-49
2022/08/25 09:41:56;;;;;;;;;;;;;;;30.84;53.81;101488.38;5017183;28;19917;-49
2022/08/25 09:44:42;;;;;;;;;;;;;;;30.96;51.52;101487.22;5017351;28;19963;-46
2022/08/25 09:47:16;;;;;;;;;;;;;;;31.01;49.68;101479.78;5015796;28;19940;-49
2022/08/25 09:49:43;;;;;;;;;;;;;;;31.12;50.54;101475.00;5016107;28;20036;-50
2022/08/25 09:52:21;;;;;;;;;;;;;;;31.23;49.15;101479.38;5016508;28;20334;-50
2022/08/25 09:54:48;;;;;;;;;;;;;;;31.34;52.70;101473.78;5015624;28;20218;-49
2022/08/25 09:57:32;;;;;;;;;;;;;;;31.47;51.60;101483.34;5016672;28;20021;-47
2022/08/25 10:00:11;;;;;;;;;;;;;;;31.65;47.23;101470.81;5017179;28;20173;-47
2022/08/25 10:02:36;;;;;;;;;;;;;;;31.76;46.81;101462.16;5015996;28;20304;-48
2022/08/25 10:05:17;;;;;;;;;;;;;;;31.96;47.76;101472.22;5015873;28;19967;-47
2022/08/25 10:07:49;;;;;;;;;;;;;;;32.06;47.96;101454.75;5015829;28;19912;-49
2022/08/25 10:10:46;;;;;;;;;;;;;;;32.22;47.32;101460.94;5016780;28;20023;-49
2022/08/25 10:13:14;;;;;;;;;;;;;;;32.40;45.25;101453.00;5026255;28;19921;-46
2022/08/25 10:15:39;;;;;;;;;;;;;;;32.47;47.34;101450.69;5014417;28;20261;-49
2022/08/25 10:18:24;;;;;;;;;;;;;;;32.58;41.29;101454.16;5016831;28;20050;-50
2022/08/25 10:21:17;;;;;;;;;;;;;;;32.62;45.58;101447.78;5015656;28;19913;-47
2022/08/25 10:23:51;;;;;;;;;;;;;;;32.72;46.37;101439.34;5018209;28;20497;-48
2022/08/25 10:26:37;;;;;;;;;;;;;;;32.85;45.22;101443.31;5033574;28;19909;-49
2022/08/25 10:29:02;;;;;;;;;;;;;;;32.98;43.75;101435.41;4993995;28;19990;-47
2022/08/25 10:31:48;;;;;;;;;;;;;;;33.04;43.31;101431.44;5014427;28;19947;-47
2022/08/25 10:34:13;;;;;;;;;;;;;;;33.00;43.81;101433.19;4994678;28;19909;-49
2022/08/25 10:36:46;;;;;;;;;;;;;;;33.03;41.64;101430.63;5047388;28;20406;-50
2022/08/25 10:39:19;;;;;;;;;;;;;;;32.99;41.19;101424.03;5016199;28;20189;-50
2022/08/25 10:41:56;;;;;;;;;;;;;;;32.92;40.63;101423.59;5016341;28;19910;-48
2022/08/25 10:47:43;;;;;;;;;;;;;;;33.18;38.91;101418.53;5013732;28;20516;-47
2022/08/25 10:50:28;;;;;;;;;;;;;;;33.33;37.91;101423.00;5015109;28;19917;-47
2022/08/25 10:53:04;;;;;;;;;;;;;;;33.39;38.72;101415.44;5016310;28;20122;-48
2022/08/25 10:55:39;;;;;;;;;;;;;;;33.19;38.22;101413.81;5016431;28;19909;-50
2022/08/25 10:58:18;;;;;;;;;;;;;;;33.00;36.92;101411.03;5016565;28;20307;-50
2022/08/25 11:00:51;;;;;;;;;;;;;;;32.90;39.10;101398.16;5015276;28;20656;-51
2022/08/25 11:03:35;;;;;;;;;;;;;;;32.78;34.86;101403.34;5016242;28;20019;-47
2022/08/25 11:06:09;;;;;;;;;;;;;;;32.65;36.64;101388.28;5015346;28;20273;-49
2022/08/25 11:08:39;;;;;;;;;;;;;;;32.63;40.53;101396.06;5016265;28;20755;-49
2022/08/25 11:11:08;;;;;;;;;;;;;;;32.61;38.35;101385.28;5016068;28;19909;-51
2022/08/25 11:13:42;;;;;;;;;;;;;;;32.69;36.89;101392.09;5016659;28;19920;-47
2022/08/25 11:16:10;;;;;;;;;;;;;;;32.81;37.27;101389.72;5014046;28;19909;-50
2022/08/25 11:18:41;;;;;;;;;;;;;;;32.94;36.47;101390.91;5015675;28;19916;-49
2022/08/25 11:21:13;;;;;;;;;;;;;;;32.99;38.24;101388.06;5014689;28;20023;-49
2022/08/25 11:23:41;;;;;;;;;;;;;;;33.04;35.33;101389.94;5016185;28;19913;-51
2022/08/25 11:26:10;;;;;;;;;;;;;;;33.06;34.75;101382.16;5016273;28;19996;-52
2022/08/25 11:28:38;;;;;;;;;;;;;;;33.11;33.32;101384.84;5015086;28;20299;-51
2022/08/25 11:31:04;;;;;;;;;;;;;;;33.11;34.67;101378.47;5014217;28;19920;-49
2022/08/25 11:33:29;;;;;;;;;;;;;;;33.24;34.04;101370.25;5018400;28;20375;-50
2022/08/25 11:35:59;;;;;;;;;;;;;;;33.33;34.32;101370.38;5025092;28;20443;-49
2022/08/25 11:38:43;;;;;;;;;;;;;;;33.47;36.24;101376.00;5035906;28;20579;-51
2022/08/25 11:41:17;;;;;;;;;;;;;;;33.61;36.07;101371.28;5016171;28;19963;-49
2022/08/25 11:43:57;;;;;;;;;;;;;;;33.82;31.95;101371.75;5016863;28;20291;-51
2022/08/25 11:46:27;;;;;;;;;;;;;;;33.96;34.88;101370.94;5014366;28;20587;-51
2022/08/25 11:49:11;;;;;;;;;;;;;;;34.13;34.02;101365.63;5016052;28;19921;-47
2022/08/25 11:51:40;;;;;;;;;;;;;;;34.30;31.19;101361.41;5022062;28;19954;-49
2022/08/25 11:54:15;;;;;;;;;;;;;;;34.38;34.09;101363.47;5019703;28;19984;-49
2022/08/25 11:56:40;;;;;;;;;;;;;;;34.55;35.23;101362.81;5015704;28;20319;-45
2022/08/25 11:59:06;;;;;;;;;;;;;;;34.64;32.86;101369.28;5014064;28;19966;-50
2022/08/25 12:01:37;;;;;;;;;;;;;;;34.65;34.37;101364.56;5014859;28;19912;-50
2022/08/25 12:04:11;;;;;;;;;;;;;;;34.73;30.09;101364.66;5014924;28;19920;-48
2022/08/25 12:06:56;;;;;;;;;;;;;;;34.73;31.99;101364.66;5015012;28;20395;-47
2022/08/25 12:09:21;;;;;;;;;;;;;;;34.80;34.66;101360.66;5015502;28;20120;-49
2022/08/25 12:11:48;;;;;;;;;;;;;;;34.97;33.72;101357.19;5015606;28;19909;-50
2022/08/25 12:14:15;;;;;;;;;;;;;;;35.06;30.53;101356.09;5015410;28;19909;-49
2022/08/25 12:16:41;;;;;;;;;;;;;;;35.12;31.19;101351.28;5014210;28;20364;-49
2022/08/25 12:19:26;;;;;;;;;;;;;;;35.09;30.82;101349.94;5014445;28;19921;-52
2022/08/25 12:22:11;;;;;;;;;;;;;;;35.09;32.18;101352.69;5015115;28;19909;-55
2022/08/25 12:24:42;;;;;;;;;;;;;;;35.20;31.92;101346.91;4994256;28;20479;-51
2022/08/25 12:27:11;;;;;;;;;;;;;;;35.39;29.69;101343.94;5014866;28;20363;-49
2022/08/25 12:29:45;;;;;;;;;;;;;;;35.40;31.27;101346.41;5016429;28;19952;-48
2022/08/25 12:32:27;;;;;;;;;;;;;;;35.53;28.53;101341.09;5017280;28;19909;-46
2022/08/25 12:35:10;;;;;;;;;;;;;;;35.50;29.49;101339.75;5018526;28;19905;-47
2022/08/25 12:37:52;;;;;;;;;;;;;;;35.55;32.81;101333.25;5049998;28;20189;-47
2022/08/25 12:40:23;;;;;;;;;;;;;;;35.76;31.12;101333.53;5018921;28;20280;-49
2022/08/25 12:42:59;;;;;;;;;;;;;;;36.03;28.64;101335.25;5019109;28;19913;-49
2022/08/25 12:45:32;;;;;;;;;;;;;;;36.30;31.30;101330.63;5017934;28;19908;-47
2022/08/25 12:48:17;;;;;;;;;;;;;;;36.85;29.56;101327.25;5017910;28;19915;-47
2022/08/25 12:50:46;;;;;;;;;;;;;;;37.59;26.21;101333.66;5017730;28;19909;-49
2022/08/25 12:53:15;;;;;;;;;;;;;;;38.18;28.84;101324.56;5018262;28;19983;-47
2022/08/25 12:55:46;;;;;;;;;;;;;;;38.85;28.81;101327.50;5050636;28;20012;-48
2022/08/25 12:58:11;;;;;;;;;;;;;;;39.47;28.31;101330.53;5018089;28;19919;-47